Airfield :
LOGIN :

Register | Disclaimer

   EN    FR    IT 

 










Legend :    VFR   Marginal VFR   IFR   Intensive IFR   Very Intensive IFR
Visi :
Ceiling :
>= 8 km
>= 3000ft
5 to 8 km
1000 to 3000 ft
1500m to 5 km
500 to 1000 ft
800 to 1500m
200 to 500 ft
< 800m
< 200 ft
Symbols :   Thunderstorms  Fog  Heavy snow  Heavy precipitations  Wind > 20 kt
SIGMETs :     Misc.  Thunderstorms  Icing  Turbulence  Mountain Waves  Volcanic Ashes






- Airport Elevation : 614 ft
- IATA code : CRL


EBCI - Charleroi

CURRENT METAR :
  • 200850Z 18012KT 150V210 9999 -RA NSC 12/09 Q1009 19015G25KT

EXPIRED METARs :
  • 200820Z 18014KT 9999 -RA NSC 12/08 Q1009 19015G25KT
  • 200750Z 19013KT 9999 -RA NSC 12/08 Q1009 NOSIG
  • 200720Z 18010KT 9999 -RA BKN/// 12/07 Q1009 NOSIG
  • 200650Z 18012KT CAVOK 11/07 Q1009 NOSIG
  • 200620Z 18012KT CAVOK 11/07 Q1008 NOSIG

TAF TAF EBCI
Valid from the 20 at 06:00 until the 21 at 12:00 UTC


200510Z 2006/2112 19012KT 7000 -RA SCT012
PROB30
TEMPO 2009/2016 20015G25KT
TEMPO 2022/2106 3500 RA BKN012
BECMG 2108/2110 19018G32KT



MET'MAP, your aeronautical weather chart ! - Copyright ORBIFLY December 2007 - Disclaimer

ORBIFLY MET'MAP TEAM :

Programming & Development : Alexandra Zaïnal
Concept & original design : Baudouin d'Aumeries
Assistance for programming : Marc-Olivier Méhu
Technical & hardware support : Manuel Goepfert

Contact : metmap@orbifly.com




SOURCES & CREDITS :

   NOAA